createdAt,value
2019-04-26T00:01:21.465Z,10.27
2019-04-26T00:03:50.843Z,10.05
2019-04-26T00:06:19.855Z,10.05
2019-04-26T00:08:52.499Z,9.97
2019-04-26T00:11:22.976Z,9.89
2019-04-26T00:14:05.000Z,9.96
2019-04-26T00:16:38.097Z,9.93
2019-04-26T00:19:06.660Z,9.87
2019-04-26T00:21:35.330Z,9.73
2019-04-26T00:24:04.325Z,9.74
2019-04-26T00:26:33.157Z,9.64
2019-04-26T00:29:01.581Z,9.57
2019-04-26T00:31:29.998Z,9.49
2019-04-26T00:33:58.463Z,9.50
2019-04-26T00:36:26.880Z,9.51
2019-04-26T00:38:55.256Z,9.48
2019-04-26T00:41:24.011Z,9.48
2019-04-26T00:43:53.273Z,9.39
2019-04-26T00:46:24.744Z,9.37
2019-04-26T00:48:54.394Z,9.24
2019-04-26T00:51:23.517Z,9.18
2019-04-26T00:53:52.542Z,9.09
2019-04-26T00:56:22.241Z,9.03
2019-04-26T00:58:51.461Z,9.04
2019-04-26T01:01:21.372Z,8.99
2019-04-26T01:03:49.762Z,9.08
2019-04-26T01:06:20.877Z,9.07
2019-04-26T01:08:51.182Z,9.17
2019-04-26T01:11:19.978Z,9.21
2019-04-26T01:13:48.347Z,9.20
2019-04-26T01:16:17.443Z,9.24
2019-04-26T01:18:48.403Z,9.19
2019-04-26T01:21:20.587Z,9.18
2019-04-26T01:23:51.644Z,9.19
2019-04-26T01:26:33.679Z,9.11
2019-04-26T01:29:07.935Z,9.14
2019-04-26T01:31:41.990Z,9.19
2019-04-26T01:34:10.525Z,9.26
2019-04-26T01:36:40.674Z,9.16
2019-04-26T01:39:14.444Z,9.07
2019-04-26T01:41:48.035Z,8.99
2019-04-26T01:44:18.811Z,8.96
2019-04-26T01:46:51.701Z,8.92
2019-04-26T01:49:24.129Z,8.84
2019-04-26T01:52:10.899Z,8.76
2019-04-26T01:54:42.238Z,8.77
2019-04-26T01:57:11.045Z,8.73
2019-04-26T01:59:46.840Z,8.72
2019-04-26T02:02:33.209Z,8.68
2019-04-26T02:05:15.555Z,8.74
2019-04-26T02:07:44.205Z,8.77
2019-04-26T02:10:15.645Z,8.77
2019-04-26T02:12:46.543Z,8.71
2019-04-26T02:15:16.405Z,8.69
2019-04-26T02:17:46.529Z,8.71
2019-04-26T02:20:17.962Z,8.59
2019-04-26T02:22:51.106Z,8.61
2019-04-26T02:25:19.564Z,8.60
2019-04-26T02:27:48.094Z,8.61
2019-04-26T02:30:16.888Z,8.70
2019-04-26T02:32:45.231Z,8.76
2019-04-26T02:35:13.624Z,8.79
2019-04-26T02:37:42.351Z,8.88
2019-04-26T02:40:16.702Z,8.97
2019-04-26T02:42:45.632Z,9.01
2019-04-26T02:45:29.991Z,9.07
2019-04-26T02:48:16.744Z,9.10
2019-04-26T02:50:49.830Z,9.18
2019-04-26T02:53:28.869Z,9.22
2019-04-26T02:56:24.244Z,9.29
2019-04-26T02:59:01.755Z,9.34
2019-04-26T03:01:32.313Z,9.39
2019-04-26T03:04:01.349Z,9.44
2019-04-26T03:06:34.273Z,9.48
2019-04-26T03:09:06.777Z,9.56
2019-04-26T03:11:39.150Z,9.59
2019-04-26T03:14:12.423Z,9.66
2019-04-26T03:16:57.381Z,9.65
2019-04-26T03:19:43.169Z,9.65
2019-04-26T03:22:21.016Z,9.63
2019-04-26T03:25:11.963Z,9.67
2019-04-26T03:28:00.156Z,9.72
2019-04-26T03:30:42.283Z,9.76
2019-04-26T03:33:22.399Z,9.74
2019-04-26T03:36:01.423Z,9.77
2019-04-26T03:38:43.586Z,9.83
2019-04-26T03:41:25.836Z,9.83
2019-04-26T03:44:00.327Z,9.83
2019-04-26T03:46:49.868Z,9.86
2019-04-26T03:49:41.425Z,9.93
2019-04-26T03:52:18.332Z,9.90
2019-04-26T03:54:49.771Z,9.91
2019-04-26T03:57:38.914Z,10.01
2019-04-26T04:00:11.619Z,10.01
2019-04-26T04:02:50.688Z,10.07
2019-04-26T04:05:26.540Z,10.03
2019-04-26T04:07:58.084Z,10.07
2019-04-26T04:10:50.604Z,10.11
2019-04-26T04:13:40.621Z,10.14
2019-04-26T04:16:20.563Z,10.14
2019-04-26T04:18:53.988Z,10.18
2019-04-26T04:21:43.053Z,10.17
2019-04-26T04:24:14.836Z,10.16
2019-04-26T04:26:55.654Z,10.23
2019-04-26T04:29:50.531Z,10.23
2019-04-26T04:32:23.963Z,10.22
2019-04-26T04:34:55.769Z,10.25
2019-04-26T04:37:27.239Z,10.29
2019-04-26T04:40:18.175Z,10.27
2019-04-26T04:43:11.685Z,10.28
2019-04-26T04:45:56.410Z,10.33
2019-04-26T04:48:43.299Z,10.24
2019-04-26T04:51:42.847Z,10.24
2019-04-26T04:54:20.140Z,10.36
2019-04-26T04:56:57.325Z,10.37
2019-04-26T04:59:52.452Z,10.42
2019-04-26T05:03:57.919Z,10.52
2019-04-26T05:06:47.040Z,10.40
2019-04-26T05:09:33.680Z,10.36
2019-04-26T05:12:16.966Z,10.36
2019-04-26T05:14:56.709Z,10.31
2019-04-26T05:17:46.159Z,10.28
2019-04-26T05:20:17.930Z,10.17
2019-04-26T05:22:55.480Z,10.12
2019-04-26T05:25:58.348Z,10.09
2019-04-26T05:28:56.809Z,10.04
2019-04-26T05:31:37.762Z,10.04
2019-04-26T05:34:19.657Z,10.05
2019-04-26T05:37:20.067Z,10.05
2019-04-26T05:40:15.586Z,10.02
2019-04-26T05:43:03.711Z,10.02
2019-04-26T05:46:00.656Z,10.03
2019-04-26T05:48:58.070Z,10.00
2019-04-26T05:51:51.946Z,9.97
2019-04-26T05:54:40.345Z,9.97
2019-04-26T05:57:29.806Z,9.95
2019-04-26T06:00:32.898Z,9.98
2019-04-26T06:03:28.657Z,9.97
2019-04-26T06:06:23.054Z,10.05
2019-04-26T06:09:08.297Z,10.05
2019-04-26T06:11:47.355Z,10.06
2019-04-26T06:14:52.940Z,10.02
2019-04-26T06:17:34.936Z,9.99
2019-04-26T06:20:22.661Z,9.97
2019-04-26T06:22:57.691Z,9.90
2019-04-26T06:25:52.490Z,9.84
2019-04-26T06:28:36.688Z,9.86
2019-04-26T06:31:23.114Z,9.90
2019-04-26T06:34:11.365Z,9.94
2019-04-26T06:36:50.059Z,9.94
2019-04-26T06:39:32.025Z,9.85
2019-04-26T06:42:37.227Z,9.83
2019-04-26T06:45:32.672Z,9.85
2019-04-26T06:48:14.388Z,9.92
2019-04-26T06:50:54.529Z,9.92
2019-04-26T06:53:35.034Z,9.96
2019-04-26T06:56:24.995Z,9.93
2019-04-26T06:59:05.860Z,9.95
2019-04-26T07:01:39.827Z,10.03
2019-04-26T07:04:11.250Z,10.03
2019-04-26T07:06:48.653Z,9.97
2019-04-26T07:09:20.240Z,9.89
2019-04-26T07:12:05.240Z,9.91
2019-04-26T07:15:00.577Z,9.98
2019-04-26T07:17:55.276Z,10.11
2019-04-26T07:20:41.572Z,10.27
2019-04-26T07:23:45.157Z,10.33
2019-04-26T07:26:49.816Z,10.38
2019-04-26T07:29:45.609Z,10.22
2019-04-26T07:32:36.343Z,10.22
2019-04-26T07:35:35.194Z,10.15
2019-04-26T07:38:48.979Z,10.22
2019-04-26T07:41:24.543Z,10.25
2019-04-26T07:44:07.613Z,10.22
2019-04-26T07:47:04.126Z,10.14
2019-04-26T07:49:59.651Z,10.08
2019-04-26T07:52:48.898Z,10.07
2019-04-26T07:55:29.491Z,10.08
2019-04-26T07:58:20.829Z,10.09
2019-04-26T08:01:37.061Z,10.11
2019-04-26T08:04:15.832Z,10.06
2019-04-26T08:07:08.577Z,10.10
2019-04-26T08:09:40.039Z,10.09
2019-04-26T08:12:12.151Z,10.10
2019-04-26T08:14:53.941Z,10.10
2019-04-26T08:17:35.620Z,10.11
2019-04-26T08:20:37.413Z,10.06
2019-04-26T08:23:16.857Z,10.01
2019-04-26T08:25:42.508Z,9.95
2019-04-26T08:28:14.259Z,9.97
2019-04-26T08:30:46.261Z,10.02
2019-04-26T08:33:18.301Z,10.04
2019-04-26T08:35:53.278Z,10.16
2019-04-26T08:38:22.833Z,10.26
2019-04-26T08:40:52.905Z,10.26
2019-04-26T08:43:41.691Z,10.48
2019-04-26T08:46:17.553Z,10.50
2019-04-26T08:49:07.103Z,10.53
2019-04-26T08:51:38.437Z,10.53
2019-04-26T08:54:18.861Z,10.58
2019-04-26T08:56:50.318Z,10.64
2019-04-26T08:59:24.496Z,10.85
2019-04-26T09:01:57.005Z,10.91
2019-04-26T09:04:45.811Z,10.94
2019-04-26T09:07:18.912Z,10.84
2019-04-26T09:09:57.008Z,10.80
2019-04-26T09:12:24.004Z,10.78
2019-04-26T09:14:55.491Z,10.85
2019-04-26T09:17:27.817Z,10.64
2019-04-26T09:19:54.181Z,10.64
2019-04-26T09:22:40.542Z,10.56
2019-04-26T09:25:30.247Z,10.53
2019-04-26T09:28:01.109Z,10.67
2019-04-26T09:30:34.003Z,10.68
2019-04-26T09:33:06.164Z,10.64
2019-04-26T09:35:34.594Z,10.60
2019-04-26T09:38:03.087Z,10.49
2019-04-26T09:40:31.785Z,10.61
2019-04-26T09:43:15.251Z,10.76
2019-04-26T09:45:54.844Z,10.81
2019-04-26T09:48:24.920Z,10.68
2019-04-26T09:50:55.275Z,10.56
2019-04-26T09:53:23.705Z,10.50
2019-04-26T09:55:52.099Z,10.60
2019-04-26T09:58:20.517Z,10.73
2019-04-26T10:00:50.254Z,10.69
2019-04-26T10:03:18.911Z,10.70
2019-04-26T10:05:47.373Z,10.82
2019-04-26T10:08:15.939Z,10.97
2019-04-26T10:10:44.420Z,11.03
2019-04-26T10:13:17.401Z,11.03
2019-04-26T10:15:50.278Z,11.31
2019-04-26T10:18:24.528Z,11.34
2019-04-26T10:20:51.463Z,11.29
2019-04-26T10:23:19.887Z,11.29
2019-04-26T10:25:52.064Z,11.29
2019-04-26T10:28:18.653Z,11.23
2019-04-26T10:30:47.385Z,11.20
2019-04-26T10:33:15.940Z,11.28
2019-04-26T10:35:44.436Z,11.40
2019-04-26T10:38:12.824Z,11.40
2019-04-26T10:40:41.220Z,11.69
2019-04-26T10:43:11.258Z,11.69
2019-04-26T10:45:39.738Z,11.65
2019-04-26T10:48:09.578Z,11.65
2019-04-26T10:50:38.729Z,11.64
2019-04-26T10:53:08.836Z,11.53
2019-04-26T10:55:42.026Z,11.62
2019-04-26T10:58:16.114Z,11.60
2019-04-26T11:00:48.412Z,11.60
2019-04-26T11:03:16.623Z,11.64
2019-04-26T11:05:45.044Z,11.94
2019-04-26T11:08:13.461Z,12.11
2019-04-26T11:10:48.580Z,12.06
2019-04-26T11:13:12.095Z,11.96
2019-04-26T11:15:40.843Z,11.87
2019-04-26T11:18:09.419Z,11.69
2019-04-26T11:20:41.402Z,11.67
2019-04-26T11:23:11.621Z,11.56
2019-04-26T11:25:38.343Z,11.51
2019-04-26T11:28:06.826Z,11.54
2019-04-26T11:30:35.309Z,11.63
2019-04-26T11:33:07.221Z,11.44
2019-04-26T11:35:34.856Z,11.47
2019-04-26T11:38:03.717Z,11.43
2019-04-26T11:40:32.219Z,11.32
2019-04-26T11:43:00.739Z,11.32
2019-04-26T11:45:29.213Z,11.20
2019-04-26T11:47:57.691Z,11.27
2019-04-26T11:50:26.187Z,11.31
2019-04-26T11:52:54.605Z,11.31
2019-04-26T11:55:25.239Z,11.29
2019-04-26T11:57:53.154Z,11.31
2019-04-26T12:00:23.465Z,11.27
2019-04-26T12:02:52.270Z,11.33
2019-04-26T12:05:34.478Z,11.51
2019-04-26T12:08:04.512Z,11.51
2019-04-26T12:10:32.958Z,11.63
2019-04-26T12:13:05.948Z,11.91
2019-04-26T12:15:31.584Z,12.37
2019-04-26T12:18:00.026Z,12.81
2019-04-26T12:20:28.587Z,12.96
2019-04-26T12:22:56.955Z,12.62
2019-04-26T12:25:25.347Z,13.02
2019-04-26T12:27:53.943Z,13.05
2019-04-26T12:30:26.317Z,12.87
2019-04-26T12:32:52.788Z,12.90
2019-04-26T12:35:21.183Z,13.31
2019-04-26T12:37:50.637Z,13.43
2019-04-26T12:40:19.798Z,13.83
2019-04-26T12:42:48.365Z,13.79
2019-04-26T12:45:21.616Z,13.88
2019-04-26T12:48:00.888Z,13.88
2019-04-26T12:50:34.085Z,13.53
2019-04-26T12:52:59.496Z,13.57
2019-04-26T12:55:27.882Z,13.65
2019-04-26T12:57:56.327Z,13.98
2019-04-26T13:00:26.647Z,14.17
2019-04-26T13:02:55.847Z,14.52
2019-04-26T13:05:24.359Z,14.97
2019-04-26T13:07:53.957Z,15.08
2019-04-26T13:10:27.024Z,14.70
2019-04-26T13:13:02.682Z,14.33
2019-04-26T13:16:02.586Z,14.20
2019-04-26T13:18:31.828Z,14.28
2019-04-26T13:21:03.135Z,13.90
2019-04-26T13:23:31.338Z,13.68
2019-04-26T13:26:01.463Z,13.52
2019-04-26T13:28:30.229Z,13.46
2019-04-26T13:31:01.878Z,13.43
2019-04-26T13:33:29.215Z,13.54
2019-04-26T13:36:04.920Z,13.55
2019-04-26T13:38:27.981Z,13.60
2019-04-26T13:40:59.674Z,13.20
2019-04-26T13:43:28.480Z,12.69
2019-04-26T13:46:01.644Z,12.54
2019-04-26T13:48:43.551Z,12.32
2019-04-26T13:51:21.494Z,12.09
2019-04-26T13:53:49.888Z,11.91
2019-04-26T13:56:18.297Z,11.90
2019-04-26T13:58:46.688Z,11.85
2019-04-26T14:01:18.580Z,11.85
2019-04-26T14:03:45.780Z,11.86
2019-04-26T14:06:14.260Z,11.82
2019-04-26T14:08:42.886Z,11.72
2019-04-26T14:11:11.277Z,11.67
2019-04-26T14:13:39.878Z,11.68
2019-04-26T14:16:08.277Z,11.71
2019-04-26T14:18:39.147Z,11.79
2019-04-26T14:21:06.891Z,11.86
2019-04-26T14:23:52.405Z,11.92
2019-04-26T14:26:22.591Z,11.97
2019-04-26T14:28:54.289Z,12.08
2019-04-26T14:31:21.282Z,12.15
2019-04-26T14:33:49.711Z,12.27
2019-04-26T14:36:18.625Z,12.27
2019-04-26T14:38:47.228Z,12.21
2019-04-26T14:41:22.018Z,12.07
2019-04-26T14:43:45.965Z,11.95
2019-04-26T14:46:16.294Z,12.05
2019-04-26T14:48:54.876Z,12.05
2019-04-26T14:51:16.873Z,12.19
2019-04-26T14:53:45.130Z,12.17
2019-04-26T14:56:13.560Z,12.08
2019-04-26T14:58:42.354Z,12.17
2019-04-26T15:01:15.484Z,12.05
2019-04-26T15:03:45.699Z,12.08
2019-04-26T15:06:20.455Z,12.18
2019-04-26T15:08:48.996Z,12.29
2019-04-26T15:11:17.324Z,12.29
2019-04-26T15:13:46.001Z,12.51
2019-04-26T15:16:14.566Z,12.57
2019-04-26T15:18:43.021Z,12.73
2019-04-26T15:21:12.931Z,12.60
2019-04-26T15:23:41.409Z,12.49
2019-04-26T15:26:09.996Z,12.29
2019-04-26T15:28:38.457Z,12.35
2019-04-26T15:31:06.960Z,12.35
2019-04-26T15:33:36.077Z,12.52
2019-04-26T15:36:06.404Z,12.67
2019-04-26T15:38:41.497Z,12.80
2019-04-26T15:41:14.608Z,13.01
2019-04-26T15:43:42.873Z,13.00
2019-04-26T15:46:13.509Z,12.84
2019-04-26T15:48:55.739Z,12.70
2019-04-26T15:51:27.481Z,12.61
2019-04-26T15:53:56.105Z,12.67
2019-04-26T15:56:24.544Z,12.75
2019-04-26T15:58:52.960Z,12.47
2019-04-26T16:01:21.514Z,12.35
2019-04-26T16:03:49.916Z,12.34
2019-04-26T16:06:18.369Z,12.37
2019-04-26T16:08:46.947Z,12.37
2019-04-26T16:11:15.621Z,12.34
2019-04-26T16:13:45.121Z,12.41
2019-04-26T16:16:16.478Z,12.28
2019-04-26T16:18:44.416Z,12.16
2019-04-26T16:21:17.823Z,12.16
2019-04-26T16:23:51.143Z,12.12
2019-04-26T16:26:15.372Z,12.11
2019-04-26T16:28:45.820Z,12.17
2019-04-26T16:31:21.548Z,12.08
2019-04-26T16:33:52.084Z,12.14
2019-04-26T16:36:21.895Z,12.06
2019-04-26T16:38:56.095Z,12.02
2019-04-26T16:41:21.767Z,12.05
2019-04-26T16:43:53.598Z,12.10
2019-04-26T16:46:24.232Z,12.05
2019-04-26T16:48:57.074Z,12.13
2019-04-26T16:51:23.294Z,12.16
2019-04-26T16:54:03.601Z,12.16
2019-04-26T16:56:26.275Z,12.15
2019-04-26T16:58:54.731Z,12.07
2019-04-26T17:01:23.434Z,12.00
2019-04-26T17:03:53.489Z,11.96
2019-04-26T17:06:23.334Z,11.91
2019-04-26T17:09:00.249Z,11.90
2019-04-26T17:11:23.003Z,11.82
2019-04-26T17:13:56.145Z,11.75
2019-04-26T17:16:22.440Z,11.79
2019-04-26T17:18:51.798Z,11.68
2019-04-26T17:21:25.486Z,11.76
2019-04-26T17:23:56.417Z,11.78
2019-04-26T17:26:29.312Z,11.67
2019-04-26T17:28:56.662Z,11.63
2019-04-26T17:31:25.119Z,11.60
2019-04-26T17:33:53.539Z,11.59
2019-04-26T17:36:22.045Z,11.62
2019-04-26T17:38:50.656Z,11.54
2019-04-26T17:41:19.124Z,11.60
2019-04-26T17:43:52.060Z,11.55
2019-04-26T17:46:18.271Z,11.53
2019-04-26T17:48:49.415Z,11.56
2019-04-26T17:51:19.118Z,11.51
2019-04-26T17:53:50.613Z,11.48
2019-04-26T17:56:18.238Z,11.48
2019-04-26T17:58:52.451Z,11.38
2019-04-26T18:01:41.496Z,11.38
2019-04-26T18:03:52.256Z,11.38
2019-04-26T18:06:29.043Z,11.40
2019-04-26T18:08:54.606Z,11.43
2019-04-26T18:11:20.182Z,11.59
2019-04-26T18:13:51.109Z,11.79
2019-04-26T18:16:22.378Z,11.83
2019-04-26T18:19:03.264Z,11.82
2019-04-26T18:21:43.696Z,11.75
2019-04-26T18:24:13.206Z,11.69
2019-04-26T18:26:41.800Z,11.49
2019-04-26T18:29:10.415Z,11.54
2019-04-26T18:31:39.725Z,11.62
2019-04-26T18:34:08.199Z,11.55
2019-04-26T18:36:36.693Z,11.44
2019-04-26T18:39:07.900Z,11.45
2019-04-26T18:41:36.389Z,11.34
2019-04-26T18:44:05.735Z,11.31
2019-04-26T18:46:40.050Z,11.22
2019-04-26T18:49:06.143Z,11.18
2019-04-26T18:51:34.594Z,11.10
2019-04-26T18:54:09.232Z,11.01
2019-04-26T18:56:40.524Z,11.00
2019-04-26T18:59:11.738Z,11.02
2019-04-26T19:01:41.831Z,11.01
2019-04-26T19:04:12.747Z,10.90
2019-04-26T19:06:42.223Z,10.91
2019-04-26T19:09:09.885Z,10.94
2019-04-26T19:11:42.086Z,10.83
2019-04-26T19:14:18.858Z,10.84
2019-04-26T19:16:50.582Z,10.71
2019-04-26T19:19:37.264Z,10.63
2019-04-26T19:22:09.352Z,10.88
2019-04-26T19:24:38.644Z,11.10
2019-04-26T19:27:07.357Z,10.98
2019-04-26T19:29:36.299Z,10.93
2019-04-26T19:32:05.577Z,10.88
2019-04-26T19:34:34.030Z,10.73
2019-04-26T19:37:03.349Z,10.64
2019-04-26T19:39:35.385Z,10.54
2019-04-26T19:42:02.537Z,10.51
2019-04-26T19:44:31.553Z,10.44
2019-04-26T19:47:16.932Z,10.45
2019-04-26T19:49:54.098Z,10.46
2019-04-26T19:52:33.723Z,10.33
2019-04-26T19:55:02.045Z,10.33
2019-04-26T19:57:42.653Z,10.30
2019-04-26T20:03:43.094Z,10.40
2019-04-26T20:06:14.190Z,10.32
2019-04-26T20:08:45.932Z,10.27
2019-04-26T20:11:14.295Z,10.28
2019-04-26T20:13:42.681Z,10.25
2019-04-26T20:16:11.223Z,10.14
2019-04-26T20:18:39.887Z,10.14
2019-04-26T20:21:12.393Z,10.13
2019-04-26T20:23:45.828Z,10.13
2019-04-26T20:26:09.021Z,10.05
2019-04-26T20:28:37.615Z,10.01
2019-04-26T20:31:13.627Z,10.00
2019-04-26T20:33:42.473Z,9.97
2019-04-26T20:36:11.062Z,9.97
2019-04-26T20:38:43.703Z,9.84
2019-04-26T20:41:13.160Z,9.83
2019-04-26T20:43:45.605Z,9.83
2019-04-26T20:46:14.911Z,9.83
2019-04-26T20:48:40.190Z,9.91
2019-04-26T20:51:11.025Z,10.00
2019-04-26T20:53:41.306Z,9.95
2019-04-26T20:56:10.662Z,9.83
2019-04-26T20:58:43.200Z,9.83
2019-04-26T21:01:12.522Z,9.78
2019-04-26T21:03:44.424Z,9.65
2019-04-26T21:06:11.454Z,9.60
2019-04-26T21:08:40.086Z,9.57
2019-04-26T21:11:08.768Z,9.49
2019-04-26T21:13:37.313Z,9.40
2019-04-26T21:16:10.474Z,9.34
2019-04-26T21:18:40.031Z,9.33
2019-04-26T21:21:10.434Z,9.31
2019-04-26T21:23:39.999Z,9.31
2019-04-26T21:26:23.530Z,9.25
2019-04-26T21:28:56.881Z,9.19
2019-04-26T21:31:40.804Z,9.13
2019-04-26T21:34:12.490Z,9.14
2019-04-26T21:36:43.807Z,9.11
2019-04-26T21:39:27.008Z,9.09
2019-04-26T21:41:57.110Z,9.13
2019-04-26T21:44:25.755Z,9.15
2019-04-26T21:46:58.664Z,9.10
2019-04-26T21:49:24.506Z,9.10
2019-04-26T21:51:54.301Z,9.03
2019-04-26T21:54:24.954Z,9.12
2019-04-26T21:56:53.734Z,9.07
2019-04-26T21:59:22.194Z,8.93
2019-04-26T22:01:53.889Z,8.89
2019-04-26T22:04:20.965Z,8.90
2019-04-26T22:06:49.435Z,8.89
2019-04-26T22:09:28.617Z,8.89
2019-04-26T22:11:56.538Z,8.89
2019-04-26T22:14:26.650Z,8.83
2019-04-26T22:17:02.029Z,8.79
2019-04-26T22:19:35.343Z,8.79
2019-04-26T22:22:24.184Z,8.75
2019-04-26T22:24:55.448Z,8.71
2019-04-26T22:27:25.624Z,8.69
2019-04-26T22:29:55.065Z,8.68
2019-04-26T22:32:23.657Z,8.66
2019-04-26T22:34:53.744Z,8.63
2019-04-26T22:37:29.529Z,8.61
2019-04-26T22:39:54.218Z,8.50
2019-04-26T22:42:23.930Z,8.58
2019-04-26T22:44:56.594Z,8.49
2019-04-26T22:47:26.731Z,8.37
2019-04-26T22:49:55.184Z,8.29
2019-04-26T22:52:23.661Z,8.22
2019-04-26T22:54:53.746Z,8.19
2019-04-26T22:57:23.200Z,8.14
2019-04-26T22:59:53.562Z,8.10
2019-04-26T23:02:23.614Z,8.08
2019-04-26T23:04:55.924Z,8.05
2019-04-26T23:07:25.274Z,8.02
2019-04-26T23:09:55.342Z,8.00
2019-04-26T23:12:28.305Z,7.96
2019-04-26T23:15:03.221Z,7.92
2019-04-26T23:17:49.677Z,7.92
2019-04-26T23:20:37.812Z,7.91
2019-04-26T23:23:08.531Z,7.88
2019-04-26T23:25:36.838Z,7.84
2019-04-26T23:28:05.237Z,7.82
2019-04-26T23:30:33.742Z,7.76
2019-04-26T23:33:02.195Z,7.70
2019-04-26T23:35:30.694Z,7.62
2019-04-26T23:38:00.990Z,7.60
2019-04-26T23:40:29.314Z,7.59
2019-04-26T23:42:57.847Z,7.48
2019-04-26T23:45:26.469Z,7.44
2019-04-26T23:47:54.861Z,7.41
2019-04-26T23:50:25.596Z,7.33
2019-04-26T23:52:53.422Z,7.33
2019-04-26T23:55:23.523Z,7.27
2019-04-26T23:57:53.476Z,7.22
